Decoded Metar for LETL (TERUEL in SPAIN) (IATA:N/A) | Meteo·Mobile Aviation Weather
aviador You're here:

LETL Decoded Metar

TERUEL in SPAIN
Report Time2019-09-23 08:30:00
UTC Time2019-09-23 09:07:05
Flight Rules vfr VFR
WindCalm
Visibility9999 m
Phenomena:N/A
Clouds:N/A
Expected CloudBase > 2,000 ft AGL from Temp-Dew spread
CeilingNone
Temp13°C (ISA +5)
Dew Point08°C (72% RH)
AAT12.6°C
QNH1024 hPa
Density Alt3,704 ft
Elevation3,367 ft
Report Wrong Elevation
Raw Report
METAR LETL 230830Z AUTO 00000KT 9999 NCD 13/08 Q1024=

Extra information for LETL:More info

Metar Taf Metar & Taf Last 4 Metars F.Rules Stats Wind Profile Meteogram Temp Stats Airport Information Weather charts Add Link Nearby VenuesMetar ALERT Operation Metar Decoded Social comments